sensor_id;sensor_type;location;lat;lon;timestamp;pressure;altitude;pressure_sealevel;temperature;humidity
52249;BME280;38541;48.130;8.378;2023-01-26T00:01:07;93022.25;;;-1.39;81.02
52249;BME280;38541;48.130;8.378;2023-01-26T00:03:34;93014.97;;;-1.35;80.85
52249;BME280;38541;48.130;8.378;2023-01-26T00:06:05;93012.63;;;-1.30;80.96
52249;BME280;38541;48.130;8.378;2023-01-26T00:08:36;92998.41;;;-1.26;80.75
52249;BME280;38541;48.130;8.378;2023-01-26T00:11:04;93006.25;;;-1.34;79.95
52249;BME280;38541;48.130;8.378;2023-01-26T00:13:31;93000.25;;;-1.41;80.89
52249;BME280;38541;48.130;8.378;2023-01-26T00:15:58;93001.56;;;-1.46;80.58
52249;BME280;38541;48.130;8.378;2023-01-26T00:18:25;92998.38;;;-1.48;80.99
52249;BME280;38541;48.130;8.378;2023-01-26T00:20:55;93003.53;;;-1.48;80.83
52249;BME280;38541;48.130;8.378;2023-01-26T00:23:23;92993.22;;;-1.48;80.88
52249;BME280;38541;48.130;8.378;2023-01-26T00:25:50;92996.78;;;-1.49;80.92
52249;BME280;38541;48.130;8.378;2023-01-26T00:28:16;92995.91;;;-1.56;80.57
52249;BME280;38541;48.130;8.378;2023-01-26T00:30:43;92981.81;;;-1.60;80.92
52249;BME280;38541;48.130;8.378;2023-01-26T00:33:10;92984.72;;;-1.63;80.71
52249;BME280;38541;48.130;8.378;2023-01-26T00:35:36;92980.47;;;-1.56;81.47
52249;BME280;38541;48.130;8.378;2023-01-26T00:38:03;92976.16;;;-1.49;81.11
52249;BME280;38541;48.130;8.378;2023-01-26T00:40:30;92965.38;;;-1.37;81.46
52249;BME280;38541;48.130;8.378;2023-01-26T00:42:56;92969.34;;;-1.35;80.95
52249;BME280;38541;48.130;8.378;2023-01-26T00:45:24;92968.81;;;-1.30;80.99
52249;BME280;38541;48.130;8.378;2023-01-26T00:47:50;92970.03;;;-1.26;81.26
52249;BME280;38541;48.130;8.378;2023-01-26T00:50:17;92965.03;;;-1.34;79.84
52249;BME280;38541;48.130;8.378;2023-01-26T00:52:44;92962.44;;;-1.34;80.43
52249;BME280;38541;48.130;8.378;2023-01-26T00:55:10;92960.09;;;-1.29;80.87
52249;BME280;38541;48.130;8.378;2023-01-26T00:57:39;92966.47;;;-1.25;80.55
52249;BME280;38541;48.130;8.378;2023-01-26T01:00:06;92951.00;;;-1.25;79.98
52249;BME280;38541;48.130;8.378;2023-01-26T01:02:34;92950.03;;;-1.24;80.06
52249;BME280;38541;48.130;8.378;2023-01-26T01:05:01;92947.44;;;-1.24;80.05
52249;BME280;38541;48.130;8.378;2023-01-26T01:07:27;92945.63;;;-1.30;80.01
52249;BME280;38541;48.130;8.378;2023-01-26T01:09:54;92935.94;;;-1.28;80.04
52249;BME280;38541;48.130;8.378;2023-01-26T01:12:20;92941.81;;;-1.34;79.79
52249;BME280;38541;48.130;8.378;2023-01-26T01:14:47;92932.25;;;-1.40;79.48
52249;BME280;38541;48.130;8.378;2023-01-26T01:17:13;92936.97;;;-1.44;80.17
52249;BME280;38541;48.130;8.378;2023-01-26T01:19:39;92935.91;;;-1.50;79.87
52249;BME280;38541;48.130;8.378;2023-01-26T01:22:06;92934.03;;;-1.41;80.47
52249;BME280;38541;48.130;8.378;2023-01-26T01:24:32;92929.91;;;-1.35;79.96
52249;BME280;38541;48.130;8.378;2023-01-26T01:27:03;92935.50;;;-1.32;79.93
52249;BME280;38541;48.130;8.378;2023-01-26T01:29:29;92933.56;;;-1.30;79.35
52249;BME280;38541;48.130;8.378;2023-01-26T01:31:56;92929.78;;;-1.27;79.54
52249;BME280;38541;48.130;8.378;2023-01-26T01:34:23;92926.84;;;-1.24;79.69
52249;BME280;38541;48.130;8.378;2023-01-26T01:36:49;92922.13;;;-1.20;79.67
52249;BME280;38541;48.130;8.378;2023-01-26T01:39:16;92929.69;;;-1.19;79.64
52249;BME280;38541;48.130;8.378;2023-01-26T01:41:41;92933.84;;;-1.18;79.14
52249;BME280;38541;48.130;8.378;2023-01-26T01:44:19;92935.22;;;-1.22;79.37
52249;BME280;38541;48.130;8.378;2023-01-26T01:47:02;92933.97;;;-1.26;79.09
52249;BME280;38541;48.130;8.378;2023-01-26T01:49:33;92936.31;;;-1.31;78.83
52249;BME280;38541;48.130;8.378;2023-01-26T01:52:10;92923.78;;;-1.34;78.71
52249;BME280;38541;48.130;8.378;2023-01-26T01:54:44;92920.97;;;-1.39;78.38
52249;BME280;38541;48.130;8.378;2023-01-26T01:57:14;92912.88;;;-1.36;79.23
52249;BME280;38541;48.130;8.378;2023-01-26T02:00:03;92906.72;;;-1.35;79.15
52249;BME280;38541;48.130;8.378;2023-01-26T02:02:38;92907.34;;;-1.33;79.04
52249;BME280;38541;48.130;8.378;2023-01-26T02:05:25;92912.50;;;-1.33;78.53
52249;BME280;38541;48.130;8.378;2023-01-26T02:07:55;92905.38;;;-1.31;78.77
52249;BME280;38541;48.130;8.378;2023-01-26T02:10:22;92903.00;;;-1.33;78.17
52249;BME280;38541;48.130;8.378;2023-01-26T02:12:54;92900.09;;;-1.45;78.58
52249;BME280;38541;48.130;8.378;2023-01-26T02:15:22;92895.50;;;-1.49;78.87
52249;BME280;38541;48.130;8.378;2023-01-26T02:17:52;92898.69;;;-1.47;78.59
52249;BME280;38541;48.130;8.378;2023-01-26T02:20:30;92895.69;;;-1.51;78.53
52249;BME280;38541;48.130;8.378;2023-01-26T02:26:17;92894.59;;;-1.41;79.18
52249;BME280;38541;48.130;8.378;2023-01-26T02:28:45;92892.97;;;-1.42;78.78
52249;BME280;38541;48.130;8.378;2023-01-26T02:31:12;92889.78;;;-1.45;79.00
52249;BME280;38541;48.130;8.378;2023-01-26T02:33:41;92883.47;;;-1.42;79.09
52249;BME280;38541;48.130;8.378;2023-01-26T02:36:20;92879.97;;;-1.34;78.99
52249;BME280;38541;48.130;8.378;2023-01-26T02:41:16;92873.16;;;-1.42;78.77
52249;BME280;38541;48.130;8.378;2023-01-26T02:44:04;92876.72;;;-1.43;78.58
52249;BME280;38541;48.130;8.378;2023-01-26T02:46:33;92873.97;;;-1.41;78.66
52249;BME280;38541;48.130;8.378;2023-01-26T02:49:01;92878.25;;;-1.49;78.63
52249;BME280;38541;48.130;8.378;2023-01-26T02:51:46;92875.44;;;-1.54;79.15
52249;BME280;38541;48.130;8.378;2023-01-26T02:54:14;92877.41;;;-1.56;78.81
52249;BME280;38541;48.130;8.378;2023-01-26T02:57:01;92868.69;;;-1.55;78.76
52249;BME280;38541;48.130;8.378;2023-01-26T02:59:28;92876.78;;;-1.58;78.51
52249;BME280;38541;48.130;8.378;2023-01-26T03:01:55;92870.22;;;-1.61;78.65
52249;BME280;38541;48.130;8.378;2023-01-26T03:04:23;92860.09;;;-1.62;78.56
52249;BME280;38541;48.130;8.378;2023-01-26T03:06:50;92857.94;;;-1.59;78.84
52249;BME280;38541;48.130;8.378;2023-01-26T03:09:17;92862.06;;;-1.64;78.27
52249;BME280;38541;48.130;8.378;2023-01-26T03:11:43;92861.94;;;-1.56;79.01
52249;BME280;38541;48.130;8.378;2023-01-26T03:14:11;92865.91;;;-1.53;78.57
52249;BME280;38541;48.130;8.378;2023-01-26T03:16:39;92854.47;;;-1.51;78.53
52249;BME280;38541;48.130;8.378;2023-01-26T03:19:08;92849.75;;;-1.47;78.80
52249;BME280;38541;48.130;8.378;2023-01-26T03:21:36;92863.22;;;-1.45;78.60
52249;BME280;38541;48.130;8.378;2023-01-26T03:24:21;92867.16;;;-1.49;78.23
52249;BME280;38541;48.130;8.378;2023-01-26T03:27:08;92865.97;;;-1.47;78.36
52249;BME280;38541;48.130;8.378;2023-01-26T03:29:57;92866.34;;;-1.50;78.19
52249;BME280;38541;48.130;8.378;2023-01-26T03:32:24;92876.66;;;-1.50;78.18
52249;BME280;38541;48.130;8.378;2023-01-26T03:34:52;92865.97;;;-1.47;78.10
52249;BME280;38541;48.130;8.378;2023-01-26T03:37:18;92875.13;;;-1.44;78.19
52249;BME280;38541;48.130;8.378;2023-01-26T03:40:03;92868.81;;;-1.41;78.12
52249;BME280;38541;48.130;8.378;2023-01-26T03:42:49;92874.22;;;-1.36;78.46
52249;BME280;38541;48.130;8.378;2023-01-26T03:45:35;92864.88;;;-1.37;78.22
52249;BME280;38541;48.130;8.378;2023-01-26T03:48:22;92866.84;;;-1.39;77.71
52249;BME280;38541;48.130;8.378;2023-01-26T03:51:08;92869.16;;;-1.45;77.96
52249;BME280;38541;48.130;8.378;2023-01-26T03:53:55;92868.00;;;-1.42;78.39
52249;BME280;38541;48.130;8.378;2023-01-26T03:56:40;92856.28;;;-1.45;77.99
52249;BME280;38541;48.130;8.378;2023-01-26T03:59:11;92855.69;;;-1.47;77.89
52249;BME280;38541;48.130;8.378;2023-01-26T04:01:45;92848.16;;;-1.48;77.71
52249;BME280;38541;48.130;8.378;2023-01-26T04:04:31;92850.53;;;-1.47;78.04
52249;BME280;38541;48.130;8.378;2023-01-26T04:07:20;92848.81;;;-1.61;77.45
52249;BME280;38541;48.130;8.378;2023-01-26T04:10:05;92842.69;;;-1.60;78.18
52249;BME280;38541;48.130;8.378;2023-01-26T04:12:32;92832.13;;;-1.65;78.03
52249;BME280;38541;48.130;8.378;2023-01-26T04:15:16;92834.41;;;-1.77;78.71
52249;BME280;38541;48.130;8.378;2023-01-26T04:18:06;92835.09;;;-1.68;78.94
52249;BME280;38541;48.130;8.378;2023-01-26T04:20:52;92828.56;;;-1.64;78.60
52249;BME280;38541;48.130;8.378;2023-01-26T04:23:40;92825.75;;;-1.69;77.90
52249;BME280;38541;48.130;8.378;2023-01-26T04:26:06;92818.16;;;-1.78;79.02
52249;BME280;38541;48.130;8.378;2023-01-26T04:28:33;92815.03;;;-1.73;78.94
52249;BME280;38541;48.130;8.378;2023-01-26T04:31:01;92808.22;;;-1.81;78.47
52249;BME280;38541;48.130;8.378;2023-01-26T04:33:33;92810.06;;;-1.75;78.80
52249;BME280;38541;48.130;8.378;2023-01-26T04:36:04;92811.53;;;-1.65;78.83
52249;BME280;38541;48.130;8.378;2023-01-26T04:38:32;92811.53;;;-1.65;78.40
52249;BME280;38541;48.130;8.378;2023-01-26T04:40:58;92802.22;;;-1.66;78.61
52249;BME280;38541;48.130;8.378;2023-01-26T04:43:26;92796.22;;;-1.74;78.48
52249;BME280;38541;48.130;8.378;2023-01-26T04:46:00;92793.13;;;-1.84;78.05
52249;BME280;38541;48.130;8.378;2023-01-26T04:48:29;92796.22;;;-1.95;78.39
52249;BME280;38541;48.130;8.378;2023-01-26T04:50:59;92801.78;;;-1.92;79.25
52249;BME280;38541;48.130;8.378;2023-01-26T04:53:27;92802.97;;;-1.94;78.84
52249;BME280;38541;48.130;8.378;2023-01-26T04:55:54;92791.63;;;-2.00;78.91
52249;BME280;38541;48.130;8.378;2023-01-26T04:58:20;92791.31;;;-1.90;79.17
52249;BME280;38541;48.130;8.378;2023-01-26T05:00:56;92799.88;;;-1.83;79.36
52249;BME280;38541;48.130;8.378;2023-01-26T05:03:24;92790.81;;;-1.79;78.87
52249;BME280;38541;48.130;8.378;2023-01-26T05:05:53;92793.44;;;-1.72;78.54
52249;BME280;38541;48.130;8.378;2023-01-26T05:08:22;92793.13;;;-1.84;78.47
52249;BME280;38541;48.130;8.378;2023-01-26T05:10:49;92798.97;;;-1.75;79.14
52249;BME280;38541;48.130;8.378;2023-01-26T05:13:43;92793.63;;;-1.74;78.70
52249;BME280;38541;48.130;8.378;2023-01-26T05:16:22;92795.84;;;-1.70;78.92
52249;BME280;38541;48.130;8.378;2023-01-26T05:19:17;92802.41;;;-1.68;78.47
52249;BME280;38541;48.130;8.378;2023-01-26T05:21:49;92803.19;;;-1.67;78.37
52249;BME280;38541;48.130;8.378;2023-01-26T05:24:16;92808.28;;;-1.74;78.52
52249;BME280;38541;48.130;8.378;2023-01-26T05:27:01;92806.63;;;-1.82;78.60
52249;BME280;38541;48.130;8.378;2023-01-26T05:29:52;92809.25;;;-1.75;79.08
52249;BME280;38541;48.130;8.378;2023-01-26T05:32:25;92796.44;;;-1.68;79.05
52249;BME280;38541;48.130;8.378;2023-01-26T05:34:52;92810.31;;;-1.69;78.62
52249;BME280;38541;48.130;8.378;2023-01-26T05:37:19;92805.97;;;-1.69;78.83
52249;BME280;38541;48.130;8.378;2023-01-26T05:39:45;92805.53;;;-1.73;78.60
52249;BME280;38541;48.130;8.378;2023-01-26T05:42:12;92805.84;;;-1.82;78.91
52249;BME280;38541;48.130;8.378;2023-01-26T05:44:57;92807.06;;;-1.78;79.17
52249;BME280;38541;48.130;8.378;2023-01-26T05:47:24;92805.72;;;-1.74;78.96
52249;BME280;38541;48.130;8.378;2023-01-26T05:49:50;92808.03;;;-1.79;79.00
52249;BME280;38541;48.130;8.378;2023-01-26T05:52:23;92799.53;;;-1.80;79.29
52249;BME280;38541;48.130;8.378;2023-01-26T05:54:50;92802.13;;;-1.80;79.54
52249;BME280;38541;48.130;8.378;2023-01-26T05:57:16;92806.63;;;-1.82;79.81
52249;BME280;38541;48.130;8.378;2023-01-26T05:59:50;92805.03;;;-1.83;79.88
52249;BME280;38541;48.130;8.378;2023-01-26T06:02:17;92798.50;;;-1.85;80.20
52249;BME280;38541;48.130;8.378;2023-01-26T06:04:44;92790.41;;;-1.82;80.43
52249;BME280;38541;48.130;8.378;2023-01-26T06:07:10;92794.38;;;-1.80;80.05
52249;BME280;38541;48.130;8.378;2023-01-26T06:09:46;92794.13;;;-1.85;79.94
52249;BME280;38541;48.130;8.378;2023-01-26T06:12:31;92803.03;;;-1.88;80.07
52249;BME280;38541;48.130;8.378;2023-01-26T06:15:09;92795.09;;;-1.86;80.38
52249;BME280;38541;48.130;8.378;2023-01-26T06:17:40;92799.81;;;-1.90;79.66
52249;BME280;38541;48.130;8.378;2023-01-26T06:20:11;92791.44;;;-1.98;79.88
52249;BME280;38541;48.130;8.378;2023-01-26T06:22:43;92797.00;;;-1.95;80.52
52249;BME280;38541;48.130;8.378;2023-01-26T06:25:09;92799.88;;;-1.83;80.43
52249;BME280;38541;48.130;8.378;2023-01-26T06:27:36;92805.91;;;-1.76;80.33
52249;BME280;38541;48.130;8.378;2023-01-26T06:30:14;92790.25;;;-1.74;80.11
52249;BME280;38541;48.130;8.378;2023-01-26T06:32:40;92795.66;;;-1.69;79.84
52249;BME280;38541;48.130;8.378;2023-01-26T06:35:07;92794.84;;;-1.69;80.12
52249;BME280;38541;48.130;8.378;2023-01-26T06:37:34;92783.41;;;-1.67;79.92
52249;BME280;38541;48.130;8.378;2023-01-26T06:40:01;92786.53;;;-1.72;79.91
52249;BME280;38541;48.130;8.378;2023-01-26T06:42:27;92801.53;;;-1.75;80.12
52249;BME280;38541;48.130;8.378;2023-01-26T06:44:54;92790.69;;;-1.70;80.30
52249;BME280;38541;48.130;8.378;2023-01-26T06:47:23;92796.44;;;-1.68;80.23
52249;BME280;38541;48.130;8.378;2023-01-26T06:49:50;92795.28;;;-1.66;80.53
52249;BME280;38541;48.130;8.378;2023-01-26T06:52:29;92792.94;;;-1.61;80.37
52249;BME280;38541;48.130;8.378;2023-01-26T06:55:02;92794.97;;;-1.56;80.24
52249;BME280;38541;48.130;8.378;2023-01-26T06:58:04;92795.97;;;-1.57;80.03
52249;BME280;38541;48.130;8.378;2023-01-26T07:00:49;92795.19;;;-1.51;79.95
52249;BME280;38541;48.130;8.378;2023-01-26T07:03:27;92796.56;;;-1.55;79.76
52249;BME280;38541;48.130;8.378;2023-01-26T07:05:53;92802.94;;;-1.51;80.03
52249;BME280;38541;48.130;8.378;2023-01-26T07:08:20;92808.53;;;-1.47;79.83
52249;BME280;38541;48.130;8.378;2023-01-26T07:10:48;92804.97;;;-1.46;79.67
52249;BME280;38541;48.130;8.378;2023-01-26T07:13:15;92804.75;;;-1.45;79.08
52249;BME280;38541;48.130;8.378;2023-01-26T07:15:41;92794.72;;;-1.39;78.75
52249;BME280;38541;48.130;8.378;2023-01-26T07:18:08;92802.22;;;-1.38;77.94
52249;BME280;38541;48.130;8.378;2023-01-26T07:20:35;92797.88;;;-1.37;77.46
52249;BME280;38541;48.130;8.378;2023-01-26T07:23:02;92800.84;;;-1.40;77.80
52249;BME280;38541;48.130;8.378;2023-01-26T07:25:28;92800.84;;;-1.40;78.16
52249;BME280;38541;48.130;8.378;2023-01-26T07:27:56;92805.63;;;-1.37;78.31
52249;BME280;38541;48.130;8.378;2023-01-26T07:30:23;92806.66;;;-1.32;78.18
52249;BME280;38541;48.130;8.378;2023-01-26T07:32:49;92803.69;;;-1.28;78.19
52249;BME280;38541;48.130;8.378;2023-01-26T07:35:16;92805.91;;;-1.25;78.17
52249;BME280;38541;48.130;8.378;2023-01-26T07:37:43;92811.47;;;-1.22;77.88
52249;BME280;38541;48.130;8.378;2023-01-26T07:40:10;92812.69;;;-1.18;77.36
52249;BME280;38541;48.130;8.378;2023-01-26T07:42:37;92815.06;;;-1.16;77.13
52249;BME280;38541;48.130;8.378;2023-01-26T07:45:16;92811.09;;;-1.19;77.17
52249;BME280;38541;48.130;8.378;2023-01-26T07:47:43;92808.91;;;-1.22;77.21
52249;BME280;38541;48.130;8.378;2023-01-26T07:50:10;92807.31;;;-1.23;77.37
52249;BME280;38541;48.130;8.378;2023-01-26T07:52:37;92805.94;;;-1.19;77.59
52249;BME280;38541;48.130;8.378;2023-01-26T07:55:04;92803.97;;;-1.17;77.21
52249;BME280;38541;48.130;8.378;2023-01-26T07:57:30;92816.09;;;-1.10;77.07
52249;BME280;38541;48.130;8.378;2023-01-26T07:59:59;92808.38;;;-1.10;76.95
52249;BME280;38541;48.130;8.378;2023-01-26T08:02:25;92810.78;;;-1.09;76.93
52249;BME280;38541;48.130;8.378;2023-01-26T08:04:52;92806.41;;;-1.08;76.52
52249;BME280;38541;48.130;8.378;2023-01-26T08:07:18;92811.38;;;-1.07;76.73
52249;BME280;38541;48.130;8.378;2023-01-26T08:09:45;92820.53;;;-1.04;76.34
52249;BME280;38541;48.130;8.378;2023-01-26T08:12:11;92816.97;;;-1.03;76.49
52249;BME280;38541;48.130;8.378;2023-01-26T08:14:38;92810.22;;;-1.04;76.36
52249;BME280;38541;48.130;8.378;2023-01-26T08:17:12;92807.22;;;-1.08;76.04
52249;BME280;38541;48.130;8.378;2023-01-26T08:19:38;92809.56;;;-1.06;76.19
52249;BME280;38541;48.130;8.378;2023-01-26T08:22:05;92808.38;;;-1.10;75.76
52249;BME280;38541;48.130;8.378;2023-01-26T08:24:31;92803.22;;;-1.10;75.66
52249;BME280;38541;48.130;8.378;2023-01-26T08:26:58;92800.84;;;-1.05;75.63
52249;BME280;38541;48.130;8.378;2023-01-26T08:29:24;92799.31;;;-0.99;75.46
52249;BME280;38541;48.130;8.378;2023-01-26T08:31:51;92800.91;;;-0.98;75.29
52249;BME280;38541;48.130;8.378;2023-01-26T08:34:18;92808.25;;;-1.02;75.31
52249;BME280;38541;48.130;8.378;2023-01-26T08:36:47;92807.25;;;-1.01;75.86
52249;BME280;38541;48.130;8.378;2023-01-26T08:39:14;92804.28;;;-0.98;75.86
52249;BME280;38541;48.130;8.378;2023-01-26T08:41:41;92804.28;;;-0.98;75.27
52249;BME280;38541;48.130;8.378;2023-01-26T08:44:09;92801.31;;;-0.95;75.36
52249;BME280;38541;48.130;8.378;2023-01-26T08:46:35;92808.50;;;-0.90;75.65
52249;BME280;38541;48.130;8.378;2023-01-26T08:49:02;92804.13;;;-0.90;75.00
52249;BME280;38541;48.130;8.378;2023-01-26T08:51:28;92804.13;;;-0.90;74.94
52249;BME280;38541;48.130;8.378;2023-01-26T08:53:55;92812.13;;;-0.84;74.84
52249;BME280;38541;48.130;8.378;2023-01-26T08:56:21;92812.31;;;-0.79;74.95
52249;BME280;38541;48.130;8.378;2023-01-26T08:58:48;92817.91;;;-0.76;75.44
52249;BME280;38541;48.130;8.378;2023-01-26T09:01:15;92804.59;;;-0.79;75.27
52249;BME280;38541;48.130;8.378;2023-01-26T09:03:42;92808.88;;;-0.93;74.04
52249;BME280;38541;48.130;8.378;2023-01-26T09:06:11;92818.22;;;-1.21;74.49
52249;BME280;38541;48.130;8.378;2023-01-26T09:08:39;92812.38;;;-1.36;74.61
52249;BME280;38541;48.130;8.378;2023-01-26T09:11:06;92811.94;;;-1.40;75.65
52249;BME280;38541;48.130;8.378;2023-01-26T09:13:33;92808.75;;;-1.13;75.80
52249;BME280;38541;48.130;8.378;2023-01-26T09:16:11;92810.44;;;-0.99;75.52
52249;BME280;38541;48.130;8.378;2023-01-26T09:18:38;92816.81;;;-0.95;75.32
52249;BME280;38541;48.130;8.378;2023-01-26T09:21:05;92809.66;;;-0.93;75.08
52249;BME280;38541;48.130;8.378;2023-01-26T09:23:33;92812.47;;;-0.88;74.85
52249;BME280;38541;48.130;8.378;2023-01-26T09:26:01;92801.41;;;-0.81;74.87
52249;BME280;38541;48.130;8.378;2023-01-26T09:28:28;92794.28;;;-0.79;74.32
52249;BME280;38541;48.130;8.378;2023-01-26T09:30:54;92798.25;;;-0.77;74.51
52249;BME280;38541;48.130;8.378;2023-01-26T09:33:21;92804.25;;;-0.69;74.22
52249;BME280;38541;48.130;8.378;2023-01-26T09:35:48;92806.25;;;-0.65;73.87
52249;BME280;38541;48.130;8.378;2023-01-26T09:38:15;92807.59;;;-0.69;73.64
52249;BME280;38541;48.130;8.378;2023-01-26T09:41:02;92808.59;;;-0.70;73.53
52249;BME280;38541;48.130;8.378;2023-01-26T09:49:16;92813.06;;;-0.86;74.35
52249;BME280;38541;48.130;8.378;2023-01-26T09:51:53;92805.72;;;-0.89;74.22
52249;BME280;38541;48.130;8.378;2023-01-26T09:54:46;92811.31;;;-0.85;75.21
52249;BME280;38541;48.130;8.378;2023-01-26T09:57:35;92810.47;;;-0.92;74.68
52249;BME280;38541;48.130;8.378;2023-01-26T10:00:08;92807.94;;;-0.79;75.38
52249;BME280;38541;48.130;8.378;2023-01-26T10:05:46;92803.44;;;-0.70;74.44
52249;BME280;38541;48.130;8.378;2023-01-26T10:08:34;92803.03;;;-0.67;74.42
52249;BME280;38541;48.130;8.378;2023-01-26T10:11:05;92806.25;;;-0.65;73.88
52249;BME280;38541;48.130;8.378;2023-01-26T10:13:33;92805.72;;;-0.89;73.82
52249;BME280;38541;48.130;8.378;2023-01-26T10:16:04;92802.31;;;-0.96;74.14
52249;BME280;38541;48.130;8.378;2023-01-26T10:18:36;92807.00;;;-1.06;74.74
52249;BME280;38541;48.130;8.378;2023-01-26T10:21:08;92806.66;;;-1.03;74.85
52249;BME280;38541;48.130;8.378;2023-01-26T10:23:35;92802.91;;;-0.94;74.57
52249;BME280;38541;48.130;8.378;2023-01-26T10:26:13;92806.00;;;-1.12;75.34
52249;BME280;38541;48.130;8.378;2023-01-26T10:28:42;92806.22;;;-1.07;75.97
52249;BME280;38541;48.130;8.378;2023-01-26T10:31:16;92801.16;;;-0.93;75.74
52249;BME280;38541;48.130;8.378;2023-01-26T10:36:22;92797.00;;;-0.88;75.45
52249;BME280;38541;48.130;8.378;2023-01-26T10:38:50;92805.88;;;-0.97;74.87
52249;BME280;38541;48.130;8.378;2023-01-26T10:41:22;92795.00;;;-0.92;74.99
52249;BME280;38541;48.130;8.378;2023-01-26T10:46:23;92784.69;;;-0.92;74.96
52249;BME280;38541;48.130;8.378;2023-01-26T10:48:51;92793.03;;;-0.90;74.61
52249;BME280;38541;48.130;8.378;2023-01-26T10:51:24;92785.84;;;-0.95;74.85
52249;BME280;38541;48.130;8.378;2023-01-26T10:56:46;92788.34;;;-1.08;74.78
52249;BME280;38541;48.130;8.378;2023-01-26T10:59:25;92789.06;;;-0.86;75.01
52249;BME280;38541;48.130;8.378;2023-01-26T11:01:58;92787.91;;;-0.83;74.18
52249;BME280;38541;48.130;8.378;2023-01-26T11:04:25;92784.34;;;-0.82;73.98
52249;BME280;38541;48.130;8.378;2023-01-26T11:06:52;92782.78;;;-0.70;74.10
52249;BME280;38541;48.130;8.378;2023-01-26T11:09:27;92769.75;;;-0.62;73.43
52249;BME280;38541;48.130;8.378;2023-01-26T11:14:26;92774.84;;;-0.75;73.17
52249;BME280;38541;48.130;8.378;2023-01-26T11:17:13;92780.00;;;-0.75;73.85
52249;BME280;38541;48.130;8.378;2023-01-26T11:20:14;92783.06;;;-1.00;74.67
52249;BME280;38541;48.130;8.378;2023-01-26T11:23:08;92777.28;;;-1.02;74.69
52249;BME280;38541;48.130;8.378;2023-01-26T11:28:57;92777.25;;;-0.74;74.79
52249;BME280;38541;48.130;8.378;2023-01-26T11:34:31;92762.78;;;-0.61;73.96
52249;BME280;38541;48.130;8.378;2023-01-26T11:40:09;92770.28;;;-0.73;73.12
52249;BME280;38541;48.130;8.378;2023-01-26T11:43:01;92767.28;;;-0.77;73.45
52249;BME280;38541;48.130;8.378;2023-01-26T11:46:03;92763.81;;;-0.97;73.50
52249;BME280;38541;48.130;8.378;2023-01-26T11:48:43;92757.88;;;-0.98;73.69
52249;BME280;38541;48.130;8.378;2023-01-26T11:53:57;92755.66;;;-1.08;74.25
52249;BME280;38541;48.130;8.378;2023-01-26T11:56:47;92755.22;;;-1.11;74.47
52249;BME280;38541;48.130;8.378;2023-01-26T11:59:26;92759.16;;;-1.16;73.63
52249;BME280;38541;48.130;8.378;2023-01-26T12:02:00;92747.31;;;-1.10;74.17
52249;BME280;38541;48.130;8.378;2023-01-26T12:04:31;92742.44;;;-0.91;74.02
52249;BME280;38541;48.130;8.378;2023-01-26T12:07:12;92734.75;;;-0.78;73.76
52249;BME280;38541;48.130;8.378;2023-01-26T12:09:46;92728.22;;;-0.67;73.43
52249;BME280;38541;48.130;8.378;2023-01-26T12:14:56;92733.25;;;-0.59;73.00
52249;BME280;38541;48.130;8.378;2023-01-26T12:23:04;92730.88;;;-0.53;72.45
52249;BME280;38541;48.130;8.378;2023-01-26T12:30:54;92724.84;;;-0.74;72.49
52249;BME280;38541;48.130;8.378;2023-01-26T12:33:24;92708.88;;;-0.98;72.62
52249;BME280;38541;48.130;8.378;2023-01-26T12:39:27;92718.94;;;-1.45;74.27
52249;BME280;38541;48.130;8.378;2023-01-26T12:45:08;92712.44;;;-1.69;74.90
52249;BME280;38541;48.130;8.378;2023-01-26T12:47:51;92712.91;;;-1.24;75.42
52249;BME280;38541;48.130;8.378;2023-01-26T12:50:28;92703.34;;;-0.95;73.76
52249;BME280;38541;48.130;8.378;2023-01-26T12:53:04;92706.94;;;-0.89;72.37
52249;BME280;38541;48.130;8.378;2023-01-26T12:55:45;92698.22;;;-0.88;72.08
52249;BME280;38541;48.130;8.378;2023-01-26T12:58:22;92699.19;;;-0.89;71.54
52249;BME280;38541;48.130;8.378;2023-01-26T13:01:14;92697.38;;;-1.02;71.15
52249;BME280;38541;48.130;8.378;2023-01-26T13:03:44;92693.59;;;-0.99;71.82
52249;BME280;38541;48.130;8.378;2023-01-26T13:11:41;92697.25;;;-0.80;73.05
52249;BME280;38541;48.130;8.378;2023-01-26T13:14:37;92695.06;;;-0.77;72.56
52249;BME280;38541;48.130;8.378;2023-01-26T13:24:46;92698.63;;;-0.84;72.62
52249;BME280;38541;48.130;8.378;2023-01-26T13:29:57;92699.94;;;-1.02;71.98
52249;BME280;38541;48.130;8.378;2023-01-26T13:34:59;92700.50;;;-1.07;73.49
52249;BME280;38541;48.130;8.378;2023-01-26T13:40:22;92699.75;;;-1.01;73.10
52249;BME280;38541;48.130;8.378;2023-01-26T13:43:12;92706.44;;;-1.06;74.00
52249;BME280;38541;48.130;8.378;2023-01-26T13:48:53;92708.38;;;-1.15;74.78
52249;BME280;38541;48.130;8.378;2023-01-26T13:51:29;92705.81;;;-1.15;74.61
52249;BME280;38541;48.130;8.378;2023-01-26T13:54:09;92707.25;;;-1.06;74.38
52249;BME280;38541;48.130;8.378;2023-01-26T13:56:41;92703.63;;;-1.18;73.89
52249;BME280;38541;48.130;8.378;2023-01-26T13:59:15;92704.56;;;-1.26;73.20
52249;BME280;38541;48.130;8.378;2023-01-26T14:01:44;92702.47;;;-1.16;73.74
52249;BME280;38541;48.130;8.378;2023-01-26T14:04:31;92702.28;;;-1.07;73.69
52249;BME280;38541;48.130;8.378;2023-01-26T14:07:07;92702.88;;;-1.12;72.78
52249;BME280;38541;48.130;8.378;2023-01-26T14:09:47;92705.59;;;-1.20;73.60
52249;BME280;38541;48.130;8.378;2023-01-26T14:12:21;92709.16;;;-1.21;73.81
52249;BME280;38541;48.130;8.378;2023-01-26T14:14:53;92708.03;;;-1.47;73.05
52249;BME280;38541;48.130;8.378;2023-01-26T14:17:31;92716.81;;;-1.35;73.38
52249;BME280;38541;48.130;8.378;2023-01-26T14:19:59;92702.38;;;-1.29;73.74
52249;BME280;38541;48.130;8.378;2023-01-26T14:22:26;92715.09;;;-1.27;72.75
52249;BME280;38541;48.130;8.378;2023-01-26T14:24:53;92719.44;;;-1.28;72.43
52249;BME280;38541;48.130;8.378;2023-01-26T14:27:37;92719.81;;;-1.31;72.30
52249;BME280;38541;48.130;8.378;2023-01-26T14:30:20;92713.25;;;-1.34;72.50
52249;BME280;38541;48.130;8.378;2023-01-26T14:32:48;92715.81;;;-1.40;72.47
52249;BME280;38541;48.130;8.378;2023-01-26T14:35:21;92712.97;;;-1.46;72.67
52249;BME280;38541;48.130;8.378;2023-01-26T14:37:49;92717.16;;;-1.45;72.75
52249;BME280;38541;48.130;8.378;2023-01-26T14:40:22;92718.13;;;-1.46;72.62
52249;BME280;38541;48.130;8.378;2023-01-26T14:42:51;92727.38;;;-1.58;72.70
52249;BME280;38541;48.130;8.378;2023-01-26T14:45:27;92724.81;;;-1.58;72.85
52249;BME280;38541;48.130;8.378;2023-01-26T14:48:01;92728.78;;;-1.55;72.33